^^
Your Local Weather - Clay, NY Station Historical Data
Daily Summary for April 12, 2017 Units:  English    Metric   Both
« Previous Day
Next Day »
Daily Weekly Monthly Yearly Custom
  High: Low: Average:
Temperature: 55.6 °F 40.9 °F 47.4 °F
Dew Point: 53.6 °F 33.2 °F 40.1 °F
Humidity: 94% 65% 76%
Wind Speed: 6.0mph 0.0mph 2.7mph
Wind Gust: 12.0mph - -
Wind- - WNW
Pressure: 30.35 in 30.03 in -
Precipitation: 0.00 in    
Historical Graphs
 
 
Tabular Data for April 12, 2017
Time Temperature Dew Point Pressure Wind Wind Speed Wind Gust Humidity Rainfall Rate (Hourly) solar
00:04 51.7 °F 49.7 °F 30.03 in Calm     93% 0.00 in 0 W/m2
00:10 51.7 °F 49.7 °F 30.03 in Calm     93% 0.00 in 0 W/m2
00:16 51.9 °F 49.9 °F 30.03 in Calm     93% 0.00 in 0 W/m2
00:22 51.9 °F 49.9 °F 30.03 in Calm   1.0 mph 93% 0.00 in 0 W/m2
00:28 52.1 °F 50.1 °F 30.03 in Calm   1.0 mph 93% 0.00 in 0 W/m2
00:34 52.2 °F 50.2 °F 30.03 in Calm   1.0 mph 93% 0.00 in 0 W/m2
00:40 52.3 °F 50.3 °F 30.03 in Calm     93% 0.00 in 0 W/m2
00:46 52.5 °F 50.5 °F 30.03 in Calm     93% 0.00 in 0 W/m2
00:52 52.7 °F 51.0 °F 30.04 in Calm     94% 0.00 in 0 W/m2
00:58 52.9 °F 51.2 °F 30.04 in NNW 1.0 mph 3.0 mph 94% 0.00 in 0 W/m2
01:04 52.9 °F 51.2 °F 30.04 in NNW 1.0 mph 1.0 mph 94% 0.00 in 0 W/m2
01:10 53.0 °F 51.0 °F 30.04 in Calm     93% 0.00 in 0 W/m2
01:16 53.0 °F 51.0 °F 30.04 in Calm     93% 0.00 in 0 W/m2
01:22 53.0 °F 51.0 °F 30.04 in Calm     93% 0.00 in 0 W/m2
01:28 53.0 °F 51.0 °F 30.04 in Calm     93% 0.00 in 0 W/m2
01:34 52.9 °F 51.2 °F 30.05 in Calm     94% 0.00 in 0 W/m2
01:40 52.9 °F 51.2 °F 30.05 in Calm     94% 0.00 in 0 W/m2
01:46 52.9 °F 51.2 °F 30.05 in Calm     94% 0.00 in 0 W/m2
01:52 52.9 °F 51.2 °F 30.05 in Calm     94% 0.00 in 0 W/m2
01:58 53.0 °F 51.3 °F 30.05 in Calm     94% 0.00 in 0 W/m2
02:04 53.3 °F 51.6 °F 30.05 in WNW 1.0 mph 1.0 mph 94% 0.00 in 0 W/m2
02:10 54.2 °F 52.5 °F 30.06 in West 1.0 mph 1.0 mph 94% 0.00 in 0 W/m2
02:16 55.1 °F 53.4 °F 30.06 in WNW 1.0 mph 3.0 mph 94% 0.00 in 0 W/m2
02:22 55.6 °F 53.6 °F 30.06 in NW 3.0 mph 6.0 mph 93% 0.00 in 0 W/m2
02:28 55.2 °F 52.6 °F 30.06 in WNW 5.0 mph 6.0 mph 91% 0.00 in 0 W/m2
02:34 55.0 °F 51.5 °F 30.06 in NW 5.0 mph 8.0 mph 88% 0.00 in 0 W/m2
02:40 54.5 °F 50.1 °F 30.06 in NW 6.0 mph 6.0 mph 85% 0.00 in 0 W/m2
02:46 54.1 °F 49.7 °F 30.07 in WNW 4.0 mph 6.0 mph 85% 0.00 in 0 W/m2
02:52 53.5 °F 48.8 °F 30.07 in NW 4.0 mph 5.0 mph 84% 0.00 in 0 W/m2
02:58 53.0 °F 47.7 °F 30.07 in NW 4.0 mph 5.0 mph 82% 0.00 in 0 W/m2
03:04 52.6 °F 47.6 °F 30.07 in West 4.0 mph 6.0 mph 83% 0.00 in 0 W/m2
03:10 52.1 °F 46.8 °F 30.08 in WNW 4.0 mph 4.0 mph 82% 0.00 in 0 W/m2
03:15 51.6 °F 46.3 °F 30.08 in WNW 4.0 mph 6.0 mph 82% 0.00 in 0 W/m2
03:22 51.3 °F 45.7 °F 30.08 in WNW 5.0 mph 5.0 mph 81% 0.00 in 0 W/m2
03:28 51.2 °F 45.6 °F 30.09 in WNW 4.0 mph 5.0 mph 81% 0.00 in 0 W/m2
03:34 50.9 °F 44.9 °F 30.09 in WNW 4.0 mph 4.0 mph 80% 0.00 in 0 W/m2
03:40 50.6 °F 44.7 °F 30.09 in WNW 4.0 mph 4.0 mph 80% 0.00 in 0 W/m2
03:46 50.4 °F 44.5 °F 30.09 in NW 4.0 mph 6.0 mph 80% 0.00 in 0 W/m2
03:52 50.2 °F 44.6 °F 30.09 in NW 3.0 mph 3.0 mph 81% 0.00 in 0 W/m2
03:58 50.1 °F 44.5 °F 30.09 in WNW 2.0 mph 4.0 mph 81% 0.00 in 0 W/m2
04:04 49.9 °F 44.3 °F 30.09 in NW 2.0 mph 4.0 mph 81% 0.00 in 0 W/m2
04:10 49.7 °F 44.4 °F 30.10 in NW 3.0 mph 4.0 mph 82% 0.00 in 0 W/m2
04:16 49.6 °F 44.3 °F 30.10 in NW 3.0 mph 4.0 mph 82% 0.00 in 0 W/m2
04:22 49.5 °F 44.2 °F 30.10 in NW 3.0 mph 3.0 mph 82% 0.00 in 0 W/m2
04:28 49.4 °F 44.1 °F 30.10 in WNW 2.0 mph 3.0 mph 82% 0.00 in 0 W/m2
04:34 49.3 °F 44.0 °F 30.10 in WNW 2.0 mph 3.0 mph 82% 0.00 in 0 W/m2
04:40 49.3 °F 44.4 °F 30.10 in WNW 2.0 mph 2.0 mph 83% 0.00 in 0 W/m2
04:46 49.2 °F 44.3 °F 30.10 in WNW 2.0 mph 5.0 mph 83% 0.00 in 0 W/m2
04:52 49.1 °F 44.2 °F 30.11 in WNW 2.0 mph 2.0 mph 83% 0.00 in 0 W/m2
04:58 49.1 °F 44.2 °F 30.11 in NW 2.0 mph 4.0 mph 83% 0.00 in 0 W/m2
05:04 49.0 °F 44.1 °F 30.11 in NW 2.0 mph 2.0 mph 83% 0.00 in 0 W/m2
05:10 49.0 °F 43.7 °F 30.11 in WNW 3.0 mph 4.0 mph 82% 0.00 in 0 W/m2
05:16 48.9 °F 43.6 °F 30.12 in NW 3.0 mph 4.0 mph 82% 0.00 in 0 W/m2
05:22 48.9 °F 43.6 °F 30.12 in NW 2.0 mph 2.0 mph 82% 0.00 in 0 W/m2
05:28 48.8 °F 43.5 °F 30.12 in NW 1.0 mph 4.0 mph 82% 0.00 in 0 W/m2
05:34 48.7 °F 43.5 °F 30.12 in NW 2.0 mph 4.0 mph 82% 0.00 in 0 W/m2
05:40 48.4 °F 42.8 °F 30.12 in NNW 3.0 mph 6.0 mph 81% 0.00 in 0 W/m2
05:46 48.2 °F 42.6 °F 30.12 in NW 3.0 mph 8.0 mph 81% 0.00 in 0 W/m2
05:52 48.0 °F 42.4 °F 30.13 in WNW 3.0 mph 5.0 mph 81% 0.00 in 0 W/m2
05:58 47.8 °F 42.3 °F 30.13 in WNW 3.0 mph 5.0 mph 81% 0.00 in 0 W/m2
06:03 47.8 °F 42.3 °F 30.13 in North 2.0 mph 4.0 mph 81% 0.00 in 0 W/m2
06:10 47.7 °F 42.2 °F 30.14 in NW 2.0 mph 2.0 mph 81% 0.00 in 0 W/m2
06:16 47.6 °F 42.1 °F 30.14 in NW 1.0 mph 2.0 mph 81% 0.00 in 0 W/m2
06:22 47.6 °F 42.1 °F 30.14 in NW 1.0 mph 1.0 mph 81% 0.00 in 0 W/m2
06:28 47.5 °F 42.0 °F 30.14 in NW 1.0 mph 2.0 mph 81% 0.00 in 0 W/m2
06:34 47.6 °F 41.7 °F 30.15 in WNW 1.0 mph 3.0 mph 80% 0.00 in 0 W/m2
06:40 47.5 °F 41.6 °F 30.15 in WNW 1.0 mph 1.0 mph 80% 0.00 in 0 W/m2
06:45 47.6 °F 41.4 °F 30.16 in WNW 1.0 mph 1.0 mph 79% 0.00 in 0 W/m2
06:52 47.6 °F 41.7 °F 30.15 in WNW 1.0 mph 1.0 mph 80% 0.00 in 9 W/m2
06:58 47.5 °F 41.6 °F 30.15 in Calm   2.0 mph 80% 0.00 in 11 W/m2
07:04 47.4 °F 41.2 °F 30.16 in WNW 1.0 mph 1.0 mph 79% 0.00 in 12 W/m2
07:10 47.5 °F 41.0 °F 30.16 in WNW 1.0 mph 1.0 mph 78% 0.00 in 9 W/m2
07:16 47.5 °F 41.0 °F 30.17 in WNW 1.0 mph 1.0 mph 78% 0.00 in 7 W/m2
07:22 47.5 °F 41.3 °F 30.17 in Calm     79% 0.00 in 12 W/m2
07:28 47.5 °F 41.3 °F 30.16 in Calm     79% 0.00 in 19 W/m2
07:34 47.5 °F 41.3 °F 30.17 in Calm   2.0 mph 79% 0.00 in 16 W/m2
07:40 47.5 °F 41.3 °F 30.17 in Calm   2.0 mph 79% 0.00 in 23 W/m2
07:45 47.5 °F 41.0 °F 30.17 in NW 1.0 mph 2.0 mph 78% 0.00 in 26 W/m2
07:52 47.5 °F 40.6 °F 30.17 in NW 1.0 mph 3.0 mph 77% 0.00 in 18 W/m2
07:58 47.5 °F 40.3 °F 30.17 in WNW 2.0 mph 6.0 mph 76% 0.00 in 21 W/m2
08:04 47.5 °F 40.3 °F 30.17 in WNW 3.0 mph 3.0 mph 76% 0.00 in 26 W/m2
08:10 47.4 °F 40.2 °F 30.18 in WNW 2.0 mph 2.0 mph 76% 0.00 in 26 W/m2
08:15 47.4 °F 39.9 °F 30.18 in WNW 3.0 mph 8.0 mph 75% 0.00 in 21 W/m2
08:22 47.3 °F 39.8 °F 30.18 in WNW 3.0 mph 3.0 mph 75% 0.00 in 26 W/m2
08:28 47.2 °F 39.3 °F 30.18 in WNW 4.0 mph 4.0 mph 74% 0.00 in 39 W/m2
08:34 47.1 °F 39.2 °F 30.18 in WNW 4.0 mph 4.0 mph 74% 0.00 in 60 W/m2
08:39 47.1 °F 39.2 °F 30.19 in NW 4.0 mph 4.0 mph 74% 0.00 in 53 W/m2
08:46 47.0 °F 39.1 °F 30.19 in WNW 5.0 mph 5.0 mph 74% 0.00 in 56 W/m2
08:52 46.8 °F 38.9 °F 30.19 in West 4.0 mph 4.0 mph 74% 0.00 in 47 W/m2
08:58 46.6 °F 38.4 °F 30.19 in WSW 5.0 mph 6.0 mph 73% 0.00 in 44 W/m2
09:03 46.4 °F 38.6 °F 30.19 in WNW 5.0 mph 5.0 mph 74% 0.00 in 39 W/m2
09:09 46.2 °F 38.4 °F 30.20 in WNW 4.0 mph 4.0 mph 74% 0.00 in 35 W/m2
09:16 46.1 °F 38.3 °F 30.20 in WNW 4.0 mph 8.0 mph 74% 0.00 in 40 W/m2
09:22 45.9 °F 38.1 °F 30.20 in WNW 4.0 mph 5.0 mph 74% 0.00 in 44 W/m2
09:28 45.8 °F 38.3 °F 30.20 in WNW 4.0 mph 7.0 mph 75% 0.00 in 56 W/m2
09:34 45.6 °F 38.1 °F 30.20 in WNW 5.0 mph 5.0 mph 75% 0.00 in 97 W/m2
09:40 45.7 °F 38.6 °F 30.20 in NNW 5.0 mph 9.0 mph 76% 0.00 in 139 W/m2
09:46 45.8 °F 38.7 °F 30.21 in NW 5.0 mph 9.0 mph 76% 0.00 in 123 W/m2
09:52 45.7 °F 38.6 °F 30.21 in WNW 4.0 mph 10.0 mph 76% 0.00 in 84 W/m2
09:58 45.4 °F 38.3 °F 30.22 in West 5.0 mph 10.0 mph 76% 0.00 in 81 W/m2
10:04 45.2 °F 38.4 °F 30.22 in WNW 5.0 mph 6.0 mph 77% 0.00 in 81 W/m2
10:10 45.2 °F 38.7 °F 30.22 in West 4.0 mph 5.0 mph 78% 0.00 in 83 W/m2
10:16 45.1 °F 38.3 °F 30.22 in NW 3.0 mph 5.0 mph 77% 0.00 in 90 W/m2
10:22 45.0 °F 38.6 °F 30.22 in NW 3.0 mph 5.0 mph 78% 0.00 in 97 W/m2
10:28 44.9 °F 38.5 °F 30.22 in WSW 3.0 mph 7.0 mph 78% 0.00 in 116 W/m2
10:34 45.0 °F 38.6 °F 30.22 in NW 3.0 mph 3.0 mph 78% 0.00 in 139 W/m2
10:40 45.1 °F 38.3 °F 30.22 in West 2.0 mph 5.0 mph 77% 0.00 in 149 W/m2
10:46 45.3 °F 38.5 °F 30.22 in West 3.0 mph 5.0 mph 77% 0.00 in 118 W/m2
10:52 45.3 °F 38.5 °F 30.22 in NW 3.0 mph 4.0 mph 77% 0.00 in 116 W/m2
10:58 45.4 °F 38.3 °F 30.23 in WNW 4.0 mph 5.0 mph 76% 0.00 in 258 W/m2
11:04 46.0 °F 38.9 °F 30.23 in NW 4.0 mph 5.0 mph 76% 0.00 in 294 W/m2
11:10 46.6 °F 39.1 °F 30.23 in West 4.0 mph 12.0 mph 75% 0.00 in 304 W/m2
11:16 46.8 °F 38.9 °F 30.23 in WNW 4.0 mph 12.0 mph 74% 0.00 in 306 W/m2
11:22 47.1 °F 38.9 °F 30.23 in WNW 4.0 mph 6.0 mph 73% 0.00 in 304 W/m2
11:28 47.0 °F 38.4 °F 30.23 in WNW 4.0 mph 6.0 mph 72% 0.00 in 258 W/m2
11:34 46.6 °F 38.1 °F 30.23 in NNW 4.0 mph 4.0 mph 72% 0.00 in 165 W/m2
11:39 46.1 °F 36.9 °F 30.23 in NW 4.0 mph 5.0 mph 70% 0.00 in 174 W/m2
11:46 45.8 °F 36.2 °F 30.24 in West 4.0 mph 6.0 mph 69% 0.00 in 218 W/m2
11:52 46.1 °F 37.2 °F 30.24 in WNW 3.0 mph 6.0 mph 71% 0.00 in 216 W/m2
11:58 46.0 °F 36.0 °F 30.24 in West 4.0 mph 7.0 mph 68% 0.00 in 204 W/m2
12:04 45.6 °F 36.4 °F 30.24 in WNW 4.0 mph 5.0 mph 70% 0.00 in 207 W/m2
12:09 45.9 °F 37.0 °F 30.23 in WNW 4.0 mph 4.0 mph 71% 0.00 in 264 W/m2
12:16 46.2 °F 36.6 °F 30.23 in West 2.0 mph 4.0 mph 69% 0.00 in 271 W/m2
12:22 46.5 °F 37.2 °F 30.23 in NW 2.0 mph 5.0 mph 70% 0.00 in 302 W/m2
12:28 46.6 °F 37.0 °F 30.23 in NW 3.0 mph 5.0 mph 69% 0.00 in 320 W/m2
12:34 47.0 °F 37.7 °F 30.23 in WSW 3.0 mph 3.0 mph 70% 0.00 in 288 W/m2
12:40 47.2 °F 37.9 °F 30.23 in NNW 2.0 mph 4.0 mph 70% 0.00 in 283 W/m2
12:45 47.1 °F 37.1 °F 30.23 in WSW 2.0 mph 5.0 mph 68% 0.00 in 290 W/m2
12:52 47.2 °F 37.9 °F 30.23 in West 3.0 mph 4.0 mph 70% 0.00 in 439 W/m2
12:58 47.8 °F 38.1 °F 30.23 in WNW 3.0 mph 5.0 mph 69% 0.00 in 429 W/m2
13:04 48.0 °F 38.3 °F 30.23 in NW 3.0 mph 4.0 mph 69% 0.00 in 406 W/m2
13:10 48.3 °F 37.8 °F 30.24 in West 2.0 mph 2.0 mph 67% 0.00 in 378 W/m2
13:16 48.3 °F 38.2 °F 30.23 in WSW 2.0 mph 3.0 mph 68% 0.00 in 257 W/m2
13:22 48.4 °F 38.3 °F 30.24 in WSW 2.0 mph 5.0 mph 68% 0.00 in 243 W/m2
13:28 48.4 °F 37.9 °F 30.23 in WNW 3.0 mph 5.0 mph 67% 0.00 in 264 W/m2
13:34 48.6 °F 38.1 °F 30.24 in WNW 3.0 mph 4.0 mph 67% 0.00 in 255 W/m2
13:40 48.5 °F 38.0 °F 30.23 in WNW 3.0 mph 3.0 mph 67% 0.00 in 135 W/m2
13:46 48.7 °F 38.2 °F 30.24 in WSW 2.0 mph 4.0 mph 67% 0.00 in 211 W/m2
13:52 48.8 °F 37.9 °F 30.24 in WSW 2.0 mph 4.0 mph 66% 0.00 in 227 W/m2
13:58 48.7 °F 38.2 °F 30.24 in NW 3.0 mph 3.0 mph 67% 0.00 in 258 W/m2
14:04 48.8 °F 38.3 °F 30.24 in WNW 3.0 mph 6.0 mph 67% 0.00 in 251 W/m2
14:10 48.8 °F 37.9 °F 30.24 in WNW 3.0 mph 3.0 mph 66% 0.00 in 287 W/m2
14:16 48.7 °F 37.8 °F 30.24 in NNW 4.0 mph 8.0 mph 66% 0.00 in 327 W/m2
14:22 48.8 °F 38.3 °F 30.24 in NNW 3.0 mph 5.0 mph 67% 0.00 in 290 W/m2
14:28 48.7 °F 37.8 °F 30.24 in WNW 3.0 mph 8.0 mph 66% 0.00 in 264 W/m2
14:34 48.6 °F 38.1 °F 30.24 in West 4.0 mph 4.0 mph 67% 0.00 in 213 W/m2
14:40 48.0 °F 37.2 °F 30.24 in WNW 3.0 mph 3.0 mph 66% 0.00 in 199 W/m2
14:46 47.9 °F 37.5 °F 30.24 in WNW 3.0 mph 4.0 mph 67% 0.00 in 216 W/m2
14:52 47.9 °F 37.1 °F 30.24 in WNW 3.0 mph 4.0 mph 66% 0.00 in 327 W/m2
14:58 48.1 °F 37.7 °F 30.24 in NW 3.0 mph 4.0 mph 67% 0.00 in 323 W/m2
15:04 48.4 °F 37.9 °F 30.24 in NNW 3.0 mph 4.0 mph 67% 0.00 in 262 W/m2
15:10 48.3 °F 37.5 °F 30.24 in WNW 3.0 mph 3.0 mph 66% 0.00 in 320 W/m2
15:16 48.4 °F 37.9 °F 30.24 in NW 3.0 mph 5.0 mph 67% 0.00 in 257 W/m2
15:22 48.1 °F 36.9 °F 30.24 in WNW 4.0 mph 7.0 mph 65% 0.00 in 251 W/m2
15:28 48.2 °F 37.8 °F 30.24 in NW 4.0 mph 7.0 mph 67% 0.00 in 315 W/m2
15:34 48.4 °F 37.9 °F 30.24 in NNW 3.0 mph 5.0 mph 67% 0.00 in 269 W/m2
15:40 47.9 °F 37.5 °F 30.24 in NNW 4.0 mph 6.0 mph 67% 0.00 in 269 W/m2
15:46 47.8 °F 38.1 °F 30.24 in NW 5.0 mph 6.0 mph 69% 0.00 in 360 W/m2
15:52 48.2 °F 38.5 °F 30.24 in NNW 4.0 mph 6.0 mph 69% 0.00 in 480 W/m2
15:58 48.2 °F 38.1 °F 30.24 in NW 3.0 mph 6.0 mph 68% 0.00 in 251 W/m2
16:03 47.6 °F 38.3 °F 30.25 in NW 3.0 mph 8.0 mph 70% 0.00 in 200 W/m2
16:10 47.2 °F 37.5 °F 30.25 in WNW 4.0 mph 4.0 mph 69% 0.00 in 251 W/m2
16:16 47.0 °F 37.4 °F 30.25 in WNW 4.0 mph 6.0 mph 69% 0.00 in 241 W/m2
16:22 46.9 °F 37.6 °F 30.25 in NNW 5.0 mph 8.0 mph 70% 0.00 in 214 W/m2
16:28 46.6 °F 37.3 °F 30.25 in West 4.0 mph 8.0 mph 70% 0.00 in 142 W/m2
16:34 46.5 °F 36.9 °F 30.26 in NNW 4.0 mph 6.0 mph 69% 0.00 in 146 W/m2
16:39 46.2 °F 37.0 °F 30.26 in WNW 4.0 mph 4.0 mph 70% 0.00 in 160 W/m2
16:46 46.2 °F 37.0 °F 30.26 in NNW 3.0 mph 4.0 mph 70% 0.00 in 160 W/m2
16:52 46.2 °F 36.6 °F 30.26 in WNW 3.0 mph 3.0 mph 69% 0.00 in 163 W/m2
16:58 46.3 °F 37.0 °F 30.26 in North 2.0 mph 4.0 mph 70% 0.00 in 134 W/m2
17:04 46.1 °F 36.1 °F 30.26 in WNW 3.0 mph 5.0 mph 68% 0.00 in 120 W/m2
17:10 45.9 °F 36.3 °F 30.26 in NW 4.0 mph 5.0 mph 69% 0.00 in 109 W/m2
17:16 45.7 °F 36.1 °F 30.26 in NNW 5.0 mph 6.0 mph 69% 0.00 in 105 W/m2
17:22 45.7 °F 36.5 °F 30.27 in NW 4.0 mph 4.0 mph 70% 0.00 in 105 W/m2
17:28 45.8 °F 36.9 °F 30.27 in NNW 3.0 mph 5.0 mph 71% 0.00 in 74 W/m2
17:34 45.5 °F 36.6 °F 30.27 in NNW 3.0 mph 3.0 mph 71% 0.00 in 60 W/m2
17:40 45.5 °F 37.0 °F 30.26 in NNW 2.0 mph 2.0 mph 72% 0.00 in 65 W/m2
17:45 45.5 °F 37.0 °F 30.27 in WNW 2.0 mph 5.0 mph 72% 0.00 in 53 W/m2
17:52 45.5 °F 37.0 °F 30.27 in NW 2.0 mph 4.0 mph 72% 0.00 in 33 W/m2
17:58 45.5 °F 37.3 °F 30.27 in NNW 2.0 mph 4.0 mph 73% 0.00 in 44 W/m2
18:04 45.5 °F 37.0 °F 30.27 in WNW 2.0 mph 2.0 mph 72% 0.00 in 42 W/m2
18:10 45.5 °F 37.0 °F 30.27 in WNW 2.0 mph 2.0 mph 72% 0.00 in 33 W/m2
18:16 45.6 °F 37.1 °F 30.27 in WNW 2.0 mph 2.0 mph 72% 0.00 in 30 W/m2
18:22 45.6 °F 37.4 °F 30.27 in WNW 2.0 mph 2.0 mph 73% 0.00 in 25 W/m2
18:28 45.5 °F 37.0 °F 30.27 in WNW 2.0 mph 3.0 mph 72% 0.00 in 21 W/m2
18:34 45.6 °F 37.1 °F 30.28 in NW 2.0 mph 3.0 mph 72% 0.00 in 19 W/m2
18:40 45.5 °F 37.3 °F 30.28 in NW 2.0 mph 2.0 mph 73% 0.00 in 14 W/m2
18:46 45.4 °F 37.2 °F 30.28 in North 1.0 mph 2.0 mph 73% 0.00 in 12 W/m2
18:52 45.4 °F 37.6 °F 30.27 in North 1.0 mph 1.0 mph 74% 0.00 in 19 W/m2
18:58 45.3 °F 37.5 °F 30.27 in WNW 1.0 mph 2.0 mph 74% 0.00 in 18 W/m2
19:04 45.2 °F 37.4 °F 30.27 in WNW 1.0 mph 2.0 mph 74% 0.00 in 16 W/m2
19:10 45.2 °F 37.4 °F 30.27 in Calm     74% 0.00 in 12 W/m2
19:16 45.2 °F 37.4 °F 30.27 in Calm     74% 0.00 in 7 W/m2
19:22 45.2 °F 37.1 °F 30.27 in Calm     73% 0.00 in 5 W/m2
19:28 45.3 °F 37.5 °F 30.28 in Calm     74% 0.00 in 0 W/m2
19:34 45.3 °F 37.8 °F 30.28 in Calm     75% 0.00 in 0 W/m2
19:40 45.3 °F 37.5 °F 30.29 in Calm     74% 0.00 in 0 W/m2
19:46 45.2 °F 37.7 °F 30.29 in Calm   1.0 mph 75% 0.00 in 0 W/m2
19:52 45.1 °F 37.6 °F 30.29 in Calm   2.0 mph 75% 0.00 in 0 W/m2
19:58 45.0 °F 37.6 °F 30.29 in North 1.0 mph 2.0 mph 75% 0.00 in 0 W/m2
20:03 45.0 °F 37.9 °F 30.29 in WNW 1.0 mph 1.0 mph 76% 0.00 in 0 W/m2
20:10 44.9 °F 37.5 °F 30.29 in WNW 1.0 mph 1.0 mph 75% 0.00 in 0 W/m2
20:16 44.9 °F 37.5 °F 30.29 in NNW 2.0 mph 3.0 mph 75% 0.00 in 0 W/m2
20:22 44.9 °F 37.1 °F 30.30 in NW 2.0 mph 3.0 mph 74% 0.00 in 0 W/m2
20:28 44.9 °F 37.5 °F 30.30 in West 1.0 mph 3.0 mph 75% 0.00 in 0 W/m2
20:34 44.8 °F 37.4 °F 30.30 in WNW 1.0 mph 1.0 mph 75% 0.00 in 0 W/m2
20:40 44.8 °F 37.0 °F 30.31 in NNW 1.0 mph 1.0 mph 74% 0.00 in 0 W/m2
20:46 44.7 °F 36.9 °F 30.31 in NW 1.0 mph 5.0 mph 74% 0.00 in 0 W/m2
20:52 44.6 °F 36.5 °F 30.31 in West 2.0 mph 3.0 mph 73% 0.00 in 0 W/m2
20:58 44.6 °F 36.8 °F 30.32 in NW 3.0 mph 4.0 mph 74% 0.00 in 0 W/m2
21:04 44.6 °F 36.8 °F 30.32 in NW 4.0 mph 4.0 mph 74% 0.00 in 0 W/m2
21:10 44.6 °F 36.8 °F 30.32 in WNW 4.0 mph 4.0 mph 74% 0.00 in 0 W/m2
21:16 44.6 °F 36.5 °F 30.32 in NW 3.0 mph 6.0 mph 73% 0.00 in 0 W/m2
21:22 44.5 °F 36.4 °F 30.33 in WSW 3.0 mph 3.0 mph 73% 0.00 in 0 W/m2
21:28 44.5 °F 36.0 °F 30.33 in NW 3.0 mph 7.0 mph 72% 0.00 in 0 W/m2
21:34 44.4 °F 35.2 °F 30.33 in NW 5.0 mph 10.0 mph 70% 0.00 in 0 W/m2
21:40 44.4 °F 35.2 °F 30.33 in WNW 5.0 mph 5.0 mph 70% 0.00 in 0 W/m2
21:46 44.3 °F 35.1 °F 30.33 in West 4.0 mph 5.0 mph 70% 0.00 in 0 W/m2
21:52 44.2 °F 34.7 °F 30.33 in WNW 5.0 mph 7.0 mph 69% 0.00 in 0 W/m2
21:58 44.2 °F 34.7 °F 30.33 in NW 4.0 mph 7.0 mph 69% 0.00 in 0 W/m2
22:04 44.1 °F 34.2 °F 30.33 in WNW 5.0 mph 7.0 mph 68% 0.00 in 0 W/m2
22:10 44.0 °F 34.1 °F 30.33 in NNW 5.0 mph 6.0 mph 68% 0.00 in 0 W/m2
22:16 43.9 °F 34.0 °F 30.33 in WNW 5.0 mph 7.0 mph 68% 0.00 in 0 W/m2
22:22 43.7 °F 33.8 °F 30.33 in NW 5.0 mph 5.0 mph 68% 0.00 in 0 W/m2
22:28 43.6 °F 33.7 °F 30.33 in WNW 5.0 mph 7.0 mph 68% 0.00 in 0 W/m2
22:34 43.4 °F 33.5 °F 30.34 in WNW 5.0 mph 7.0 mph 68% 0.00 in 0 W/m2
22:40 43.1 °F 33.6 °F 30.34 in NNW 5.0 mph 5.0 mph 69% 0.00 in 0 W/m2
22:46 42.9 °F 33.4 °F 30.34 in WNW 6.0 mph 6.0 mph 69% 0.00 in 0 W/m2
22:52 42.7 °F 33.9 °F 30.34 in WNW 5.0 mph 6.0 mph 71% 0.00 in 0 W/m2
22:58 42.4 °F 34.0 °F 30.34 in WNW 4.0 mph 6.0 mph 72% 0.00 in 0 W/m2
23:04 42.1 °F 34.1 °F 30.34 in WSW 4.0 mph 7.0 mph 73% 0.00 in 0 W/m2
23:10 41.9 °F 34.2 °F 30.34 in NW 5.0 mph 5.0 mph 74% 0.00 in 0 W/m2
23:16 41.8 °F 34.1 °F 30.34 in WNW 4.0 mph 5.0 mph 74% 0.00 in 0 W/m2
23:22 41.6 °F 34.3 °F 30.34 in WNW 3.0 mph 4.0 mph 75% 0.00 in 0 W/m2
23:28 41.6 °F 33.9 °F 30.34 in NW 4.0 mph 4.0 mph 74% 0.00 in 0 W/m2
23:34 41.4 °F 33.7 °F 30.34 in NW 4.0 mph 7.0 mph 74% 0.00 in 0 W/m2
23:39 41.3 °F 33.6 °F 30.35 in WNW 5.0 mph 5.0 mph 74% 0.00 in 0 W/m2
23:46 41.1 °F 33.8 °F 30.35 in WNW 4.0 mph 6.0 mph 75% 0.00 in 0 W/m2
23:52 41.0 °F 33.3 °F 30.35 in NW 4.0 mph 4.0 mph 74% 0.00 in 0 W/m2
23:58 40.9 °F 33.2 °F 30.35 in WNW 5.0 mph 6.0 mph 74% 0.00 in 0 W/m2
Country Meadow, Clay, NY, USA
Compliments of Weather Underground - 2 mb